sensor_id;sensor_type;location;lat;lon;timestamp;P1;durP1;ratioP1;P2;durP2;ratioP2
50483;SDS011;36409;52.168;20.878;2023-09-07T00:01:00;12.50;;;7.50;;
50483;SDS011;36409;52.168;20.878;2023-09-07T00:03:37;14.83;;;7.83;;
50483;SDS011;36409;52.168;20.878;2023-09-07T00:06:08;12.90;;;7.20;;
50483;SDS011;36409;52.168;20.878;2023-09-07T00:08:37;10.97;;;6.57;;
50483;SDS011;36409;52.168;20.878;2023-09-07T00:11:06;12.30;;;7.07;;
50483;SDS011;36409;52.168;20.878;2023-09-07T00:13:41;12.35;;;6.85;;
50483;SDS011;36409;52.168;20.878;2023-09-07T00:16:10;12.30;;;6.27;;
50483;SDS011;36409;52.168;20.878;2023-09-07T00:18:39;10.70;;;6.73;;
50483;SDS011;36409;52.168;20.878;2023-09-07T00:21:08;11.63;;;6.47;;
50483;SDS011;36409;52.168;20.878;2023-09-07T00:23:36;11.23;;;6.60;;
50483;SDS011;36409;52.168;20.878;2023-09-07T00:26:07;12.33;;;6.07;;
50483;SDS011;36409;52.168;20.878;2023-09-07T00:28:36;9.90;;;6.70;;
50483;SDS011;36409;52.168;20.878;2023-09-07T00:31:05;11.80;;;7.17;;
50483;SDS011;36409;52.168;20.878;2023-09-07T00:33:34;10.67;;;6.90;;
50483;SDS011;36409;52.168;20.878;2023-09-07T00:36:06;9.60;;;6.17;;
50483;SDS011;36409;52.168;20.878;2023-09-07T00:38:35;9.80;;;6.20;;
50483;SDS011;36409;52.168;20.878;2023-09-07T00:41:04;13.47;;;7.07;;
50483;SDS011;36409;52.168;20.878;2023-09-07T00:43:33;12.33;;;6.53;;
50483;SDS011;36409;52.168;20.878;2023-09-07T00:46:02;12.17;;;6.77;;
50483;SDS011;36409;52.168;20.878;2023-09-07T00:48:31;14.47;;;7.47;;
50483;SDS011;36409;52.168;20.878;2023-09-07T00:51:01;10.63;;;7.33;;
50483;SDS011;36409;52.168;20.878;2023-09-07T00:53:30;13.20;;;7.47;;
50483;SDS011;36409;52.168;20.878;2023-09-07T00:55:59;11.40;;;6.97;;
50483;SDS011;36409;52.168;20.878;2023-09-07T00:58:29;14.23;;;6.77;;
50483;SDS011;36409;52.168;20.878;2023-09-07T01:01:00;12.73;;;6.87;;
50483;SDS011;36409;52.168;20.878;2023-09-07T01:03:29;12.77;;;7.17;;
50483;SDS011;36409;52.168;20.878;2023-09-07T01:06:01;11.87;;;7.53;;
50483;SDS011;36409;52.168;20.878;2023-09-07T01:08:37;14.07;;;7.33;;
50483;SDS011;36409;52.168;20.878;2023-09-07T01:11:14;10.63;;;7.30;;
50483;SDS011;36409;52.168;20.878;2023-09-07T01:13:44;15.20;;;7.20;;
50483;SDS011;36409;52.168;20.878;2023-09-07T01:16:13;18.50;;;7.67;;
50483;SDS011;36409;52.168;20.878;2023-09-07T01:18:42;10.50;;;6.13;;
50483;SDS011;36409;52.168;20.878;2023-09-07T01:21:13;10.90;;;7.33;;
50483;SDS011;36409;52.168;20.878;2023-09-07T01:23:43;11.57;;;6.63;;
50483;SDS011;36409;52.168;20.878;2023-09-07T01:26:14;11.03;;;7.13;;
50483;SDS011;36409;52.168;20.878;2023-09-07T01:28:43;13.33;;;7.57;;
50483;SDS011;36409;52.168;20.878;2023-09-07T01:31:12;16.00;;;8.23;;
50483;SDS011;36409;52.168;20.878;2023-09-07T01:33:41;12.83;;;7.47;;
50483;SDS011;36409;52.168;20.878;2023-09-07T01:36:10;10.87;;;7.10;;
50483;SDS011;36409;52.168;20.878;2023-09-07T01:38:39;12.17;;;7.70;;
50483;SDS011;36409;52.168;20.878;2023-09-07T01:41:08;25.60;;;8.03;;
50483;SDS011;36409;52.168;20.878;2023-09-07T01:43:37;12.47;;;8.47;;
50483;SDS011;36409;52.168;20.878;2023-09-07T01:46:06;11.73;;;7.90;;
50483;SDS011;36409;52.168;20.878;2023-09-07T01:48:35;13.63;;;7.73;;
50483;SDS011;36409;52.168;20.878;2023-09-07T01:51:04;13.37;;;8.53;;
50483;SDS011;36409;52.168;20.878;2023-09-07T01:53:33;13.80;;;8.00;;
50483;SDS011;36409;52.168;20.878;2023-09-07T01:56:02;12.10;;;7.90;;
50483;SDS011;36409;52.168;20.878;2023-09-07T01:58:32;13.17;;;8.27;;
50483;SDS011;36409;52.168;20.878;2023-09-07T02:01:01;19.90;;;9.03;;
50483;SDS011;36409;52.168;20.878;2023-09-07T02:03:30;15.10;;;8.77;;
50483;SDS011;36409;52.168;20.878;2023-09-07T02:05:59;14.03;;;7.33;;
50483;SDS011;36409;52.168;20.878;2023-09-07T02:08:28;13.33;;;7.93;;
50483;SDS011;36409;52.168;20.878;2023-09-07T02:10:57;15.57;;;8.37;;
50483;SDS011;36409;52.168;20.878;2023-09-07T02:13:26;13.83;;;8.20;;
50483;SDS011;36409;52.168;20.878;2023-09-07T02:15:56;11.60;;;8.07;;
50483;SDS011;36409;52.168;20.878;2023-09-07T02:18:25;15.43;;;7.73;;
50483;SDS011;36409;52.168;20.878;2023-09-07T02:20:54;16.10;;;7.53;;
50483;SDS011;36409;52.168;20.878;2023-09-07T02:25:56;13.97;;;8.57;;
50483;SDS011;36409;52.168;20.878;2023-09-07T02:28:25;15.57;;;8.90;;
50483;SDS011;36409;52.168;20.878;2023-09-07T02:30:54;15.13;;;9.20;;
50483;SDS011;36409;52.168;20.878;2023-09-07T02:33:30;12.97;;;8.17;;
50483;SDS011;36409;52.168;20.878;2023-09-07T02:36:00;18.20;;;7.80;;
50483;SDS011;36409;52.168;20.878;2023-09-07T02:38:29;14.07;;;8.07;;
50483;SDS011;36409;52.168;20.878;2023-09-07T02:40:59;16.83;;;8.93;;
50483;SDS011;36409;52.168;20.878;2023-09-07T02:43:29;14.80;;;8.43;;
50483;SDS011;36409;52.168;20.878;2023-09-07T02:45:58;13.83;;;9.03;;
50483;SDS011;36409;52.168;20.878;2023-09-07T02:48:29;14.20;;;7.87;;
50483;SDS011;36409;52.168;20.878;2023-09-07T02:50:58;15.07;;;8.17;;
50483;SDS011;36409;52.168;20.878;2023-09-07T02:53:28;12.77;;;7.43;;
50483;SDS011;36409;52.168;20.878;2023-09-07T02:55:57;20.50;;;8.50;;
50483;SDS011;36409;52.168;20.878;2023-09-07T02:58:26;18.17;;;8.10;;
50483;SDS011;36409;52.168;20.878;2023-09-07T03:00:55;18.37;;;8.20;;
50483;SDS011;36409;52.168;20.878;2023-09-07T03:03:25;20.37;;;8.37;;
50483;SDS011;36409;52.168;20.878;2023-09-07T03:05:57;21.03;;;7.40;;
50483;SDS011;36409;52.168;20.878;2023-09-07T03:08:26;10.77;;;7.80;;
50483;SDS011;36409;52.168;20.878;2023-09-07T03:10:54;10.23;;;7.07;;
50483;SDS011;36409;52.168;20.878;2023-09-07T03:13:32;20.07;;;8.03;;
50483;SDS011;36409;52.168;20.878;2023-09-07T03:16:02;12.57;;;7.73;;
50483;SDS011;36409;52.168;20.878;2023-09-07T03:18:32;14.97;;;8.37;;
50483;SDS011;36409;52.168;20.878;2023-09-07T03:21:01;12.93;;;7.50;;
50483;SDS011;36409;52.168;20.878;2023-09-07T03:23:31;14.97;;;7.83;;
50483;SDS011;36409;52.168;20.878;2023-09-07T03:26:01;15.30;;;7.87;;
50483;SDS011;36409;52.168;20.878;2023-09-07T03:28:31;12.73;;;7.73;;
50483;SDS011;36409;52.168;20.878;2023-09-07T03:31:00;13.63;;;8.03;;
50483;SDS011;36409;52.168;20.878;2023-09-07T03:33:29;11.70;;;7.07;;
50483;SDS011;36409;52.168;20.878;2023-09-07T03:35:58;11.13;;;7.63;;
50483;SDS011;36409;52.168;20.878;2023-09-07T03:38:27;12.03;;;7.20;;
50483;SDS011;36409;52.168;20.878;2023-09-07T03:40:57;13.47;;;7.37;;
50483;SDS011;36409;52.168;20.878;2023-09-07T03:43:26;14.90;;;7.80;;
50483;SDS011;36409;52.168;20.878;2023-09-07T03:48:31;13.70;;;7.77;;
50483;SDS011;36409;52.168;20.878;2023-09-07T03:51:05;14.17;;;7.83;;
50483;SDS011;36409;52.168;20.878;2023-09-07T03:53:34;12.27;;;7.47;;
50483;SDS011;36409;52.168;20.878;2023-09-07T03:56:04;14.80;;;8.87;;
50483;SDS011;36409;52.168;20.878;2023-09-07T03:58:32;14.30;;;8.60;;
50483;SDS011;36409;52.168;20.878;2023-09-07T04:01:04;13.47;;;9.07;;
50483;SDS011;36409;52.168;20.878;2023-09-07T04:03:33;12.47;;;8.20;;
50483;SDS011;36409;52.168;20.878;2023-09-07T04:06:04;11.20;;;7.83;;
50483;SDS011;36409;52.168;20.878;2023-09-07T04:08:34;15.03;;;8.23;;
50483;SDS011;36409;52.168;20.878;2023-09-07T04:11:03;13.40;;;7.83;;
50483;SDS011;36409;52.168;20.878;2023-09-07T04:13:33;13.73;;;7.93;;
50483;SDS011;36409;52.168;20.878;2023-09-07T04:16:03;13.83;;;7.67;;
50483;SDS011;36409;52.168;20.878;2023-09-07T04:18:32;13.90;;;7.57;;
50483;SDS011;36409;52.168;20.878;2023-09-07T04:21:07;16.33;;;7.63;;
50483;SDS011;36409;52.168;20.878;2023-09-07T04:23:37;11.70;;;7.13;;
50483;SDS011;36409;52.168;20.878;2023-09-07T04:26:06;12.60;;;8.17;;
50483;SDS011;36409;52.168;20.878;2023-09-07T04:28:36;15.83;;;8.27;;
50483;SDS011;36409;52.168;20.878;2023-09-07T04:31:06;12.13;;;7.37;;
50483;SDS011;36409;52.168;20.878;2023-09-07T04:33:36;15.83;;;8.27;;
50483;SDS011;36409;52.168;20.878;2023-09-07T04:36:31;16.03;;;8.20;;
50483;SDS011;36409;52.168;20.878;2023-09-07T04:39:21;12.27;;;8.70;;
50483;SDS011;36409;52.168;20.878;2023-09-07T04:45:33;16.70;;;8.57;;
50483;SDS011;36409;52.168;20.878;2023-09-07T04:48:03;13.60;;;8.70;;
50483;SDS011;36409;52.168;20.878;2023-09-07T04:50:32;15.90;;;9.97;;
50483;SDS011;36409;52.168;20.878;2023-09-07T04:53:01;19.53;;;9.67;;
50483;SDS011;36409;52.168;20.878;2023-09-07T04:55:30;17.30;;;9.50;;
50483;SDS011;36409;52.168;20.878;2023-09-07T04:58:04;18.13;;;9.80;;
50483;SDS011;36409;52.168;20.878;2023-09-07T05:00:33;24.63;;;12.07;;
50483;SDS011;36409;52.168;20.878;2023-09-07T05:03:02;19.77;;;10.13;;
50483;SDS011;36409;52.168;20.878;2023-09-07T05:05:32;18.83;;;10.70;;
50483;SDS011;36409;52.168;20.878;2023-09-07T05:08:01;19.87;;;10.40;;
50483;SDS011;36409;52.168;20.878;2023-09-07T05:10:33;19.20;;;9.40;;
50483;SDS011;36409;52.168;20.878;2023-09-07T05:15:34;23.50;;;10.07;;
50483;SDS011;36409;52.168;20.878;2023-09-07T05:18:04;19.93;;;9.03;;
50483;SDS011;36409;52.168;20.878;2023-09-07T05:20:33;16.40;;;8.73;;
50483;SDS011;36409;52.168;20.878;2023-09-07T05:23:02;17.63;;;9.10;;
50483;SDS011;36409;52.168;20.878;2023-09-07T05:25:31;15.73;;;8.97;;
50483;SDS011;36409;52.168;20.878;2023-09-07T05:28:00;16.63;;;9.03;;
50483;SDS011;36409;52.168;20.878;2023-09-07T05:30:29;14.73;;;9.07;;
50483;SDS011;36409;52.168;20.878;2023-09-07T05:33:00;18.07;;;9.03;;
50483;SDS011;36409;52.168;20.878;2023-09-07T05:35:31;16.47;;;9.13;;
50483;SDS011;36409;52.168;20.878;2023-09-07T05:38:00;14.27;;;8.63;;
50483;SDS011;36409;52.168;20.878;2023-09-07T05:40:30;14.70;;;9.47;;
50483;SDS011;36409;52.168;20.878;2023-09-07T05:43:02;15.93;;;10.03;;
50483;SDS011;36409;52.168;20.878;2023-09-07T05:45:33;14.57;;;9.30;;
50483;SDS011;36409;52.168;20.878;2023-09-07T05:48:06;15.32;;;9.28;;
50483;SDS011;36409;52.168;20.878;2023-09-07T05:50:37;18.43;;;10.27;;
50483;SDS011;36409;52.168;20.878;2023-09-07T05:53:09;13.85;;;9.00;;
50483;SDS011;36409;52.168;20.878;2023-09-07T05:55:38;11.53;;;8.70;;
50483;SDS011;36409;52.168;20.878;2023-09-07T05:58:07;28.23;;;11.00;;
50483;SDS011;36409;52.168;20.878;2023-09-07T06:00:39;20.10;;;11.50;;
50483;SDS011;36409;52.168;20.878;2023-09-07T06:03:08;23.33;;;11.23;;
50483;SDS011;36409;52.168;20.878;2023-09-07T06:05:39;20.93;;;11.07;;
50483;SDS011;36409;52.168;20.878;2023-09-07T06:08:08;24.35;;;12.35;;
50483;SDS011;36409;52.168;20.878;2023-09-07T06:10:38;25.17;;;12.17;;
50483;SDS011;36409;52.168;20.878;2023-09-07T06:13:08;23.53;;;11.73;;
50483;SDS011;36409;52.168;20.878;2023-09-07T06:15:37;21.70;;;12.67;;
50483;SDS011;36409;52.168;20.878;2023-09-07T06:18:06;28.10;;;12.90;;
50483;SDS011;36409;52.168;20.878;2023-09-07T06:20:37;35.07;;;14.83;;
50483;SDS011;36409;52.168;20.878;2023-09-07T06:23:07;26.00;;;14.15;;
50483;SDS011;36409;52.168;20.878;2023-09-07T06:25:35;29.73;;;14.20;;
50483;SDS011;36409;52.168;20.878;2023-09-07T06:28:05;28.50;;;14.40;;
50483;SDS011;36409;52.168;20.878;2023-09-07T06:30:34;27.23;;;13.73;;
50483;SDS011;36409;52.168;20.878;2023-09-07T06:33:04;33.97;;;14.43;;
50483;SDS011;36409;52.168;20.878;2023-09-07T06:35:34;35.13;;;14.33;;
50483;SDS011;36409;52.168;20.878;2023-09-07T06:38:03;27.23;;;13.47;;
50483;SDS011;36409;52.168;20.878;2023-09-07T06:40:32;25.70;;;13.63;;
50483;SDS011;36409;52.168;20.878;2023-09-07T06:43:01;26.93;;;13.33;;
50483;SDS011;36409;52.168;20.878;2023-09-07T06:45:34;26.00;;;13.13;;
50483;SDS011;36409;52.168;20.878;2023-09-07T06:48:04;30.83;;;12.60;;
50483;SDS011;36409;52.168;20.878;2023-09-07T06:50:33;27.87;;;12.20;;
50483;SDS011;36409;52.168;20.878;2023-09-07T06:53:03;23.83;;;12.70;;
50483;SDS011;36409;52.168;20.878;2023-09-07T06:55:32;19.70;;;11.50;;
50483;SDS011;36409;52.168;20.878;2023-09-07T06:58:01;26.70;;;11.83;;
50483;SDS011;36409;52.168;20.878;2023-09-07T07:00:30;25.33;;;11.80;;
50483;SDS011;36409;52.168;20.878;2023-09-07T07:03:02;26.03;;;11.77;;
50483;SDS011;36409;52.168;20.878;2023-09-07T07:05:32;34.67;;;11.47;;
50483;SDS011;36409;52.168;20.878;2023-09-07T07:08:01;31.83;;;13.20;;
50483;SDS011;36409;52.168;20.878;2023-09-07T07:10:30;31.03;;;12.60;;
50483;SDS011;36409;52.168;20.878;2023-09-07T07:13:00;29.80;;;12.33;;
50483;SDS011;36409;52.168;20.878;2023-09-07T07:15:30;27.93;;;11.77;;
50483;SDS011;36409;52.168;20.878;2023-09-07T07:17:59;20.23;;;11.33;;
50483;SDS011;36409;52.168;20.878;2023-09-07T07:20:29;31.30;;;13.03;;
50483;SDS011;36409;52.168;20.878;2023-09-07T07:22:58;20.27;;;11.33;;
50483;SDS011;36409;52.168;20.878;2023-09-07T07:25:27;26.10;;;12.17;;
50483;SDS011;36409;52.168;20.878;2023-09-07T07:27:56;24.53;;;11.30;;
50483;SDS011;36409;52.168;20.878;2023-09-07T07:30:27;26.47;;;12.00;;
50483;SDS011;36409;52.168;20.878;2023-09-07T07:33:02;29.10;;;11.20;;
50483;SDS011;36409;52.168;20.878;2023-09-07T07:35:32;19.67;;;11.30;;
50483;SDS011;36409;52.168;20.878;2023-09-07T07:38:03;27.70;;;12.03;;
50483;SDS011;36409;52.168;20.878;2023-09-07T07:40:34;38.83;;;12.17;;
50483;SDS011;36409;52.168;20.878;2023-09-07T07:43:03;22.67;;;10.77;;
50483;SDS011;36409;52.168;20.878;2023-09-07T07:45:33;30.97;;;11.27;;
50483;SDS011;36409;52.168;20.878;2023-09-07T07:48:06;32.97;;;12.07;;
50483;SDS011;36409;52.168;20.878;2023-09-07T07:50:39;24.90;;;10.95;;
50483;SDS011;36409;52.168;20.878;2023-09-07T07:53:09;27.23;;;9.90;;
50483;SDS011;36409;52.168;20.878;2023-09-07T07:55:39;24.30;;;10.07;;
50483;SDS011;36409;52.168;20.878;2023-09-07T07:58:13;29.80;;;10.37;;
50483;SDS011;36409;52.168;20.878;2023-09-07T08:00:42;27.77;;;11.10;;
50483;SDS011;36409;52.168;20.878;2023-09-07T08:03:16;26.57;;;9.77;;
50483;SDS011;36409;52.168;20.878;2023-09-07T08:05:46;24.77;;;9.13;;
50483;SDS011;36409;52.168;20.878;2023-09-07T08:08:16;20.13;;;8.30;;
50483;SDS011;36409;52.168;20.878;2023-09-07T08:10:45;27.23;;;9.30;;
50483;SDS011;36409;52.168;20.878;2023-09-07T08:13:14;21.70;;;9.13;;
50483;SDS011;36409;52.168;20.878;2023-09-07T08:15:43;28.47;;;10.00;;
50483;SDS011;36409;52.168;20.878;2023-09-07T08:18:13;19.43;;;8.20;;
50483;SDS011;36409;52.168;20.878;2023-09-07T08:20:43;25.80;;;8.07;;
50483;SDS011;36409;52.168;20.878;2023-09-07T08:23:12;27.37;;;8.73;;
50483;SDS011;36409;52.168;20.878;2023-09-07T08:25:41;26.40;;;8.50;;
50483;SDS011;36409;52.168;20.878;2023-09-07T08:28:14;40.07;;;9.33;;
50483;SDS011;36409;52.168;20.878;2023-09-07T08:30:45;23.83;;;7.77;;
50483;SDS011;36409;52.168;20.878;2023-09-07T08:33:16;18.85;;;7.60;;
50483;SDS011;36409;52.168;20.878;2023-09-07T08:35:45;28.97;;;8.67;;
50483;SDS011;36409;52.168;20.878;2023-09-07T08:38:18;27.47;;;7.30;;
50483;SDS011;36409;52.168;20.878;2023-09-07T08:40:49;20.27;;;7.60;;
50483;SDS011;36409;52.168;20.878;2023-09-07T08:43:18;22.27;;;7.37;;
50483;SDS011;36409;52.168;20.878;2023-09-07T08:45:50;22.13;;;7.10;;
50483;SDS011;36409;52.168;20.878;2023-09-07T08:48:29;33.33;;;7.67;;
50483;SDS011;36409;52.168;20.878;2023-09-07T08:51:00;21.07;;;6.37;;
50483;SDS011;36409;52.168;20.878;2023-09-07T08:53:33;15.50;;;6.75;;
50483;SDS011;36409;52.168;20.878;2023-09-07T08:56:02;26.80;;;7.23;;
50483;SDS011;36409;52.168;20.878;2023-09-07T08:58:34;18.27;;;7.07;;
50483;SDS011;36409;52.168;20.878;2023-09-07T09:01:04;27.90;;;7.27;;
50483;SDS011;36409;52.168;20.878;2023-09-07T09:03:37;10.85;;;4.90;;
50483;SDS011;36409;52.168;20.878;2023-09-07T09:06:06;14.17;;;5.63;;
50483;SDS011;36409;52.168;20.878;2023-09-07T09:08:42;8.87;;;4.53;;
50483;SDS011;36409;52.168;20.878;2023-09-07T09:11:11;13.20;;;5.07;;
50483;SDS011;36409;52.168;20.878;2023-09-07T09:13:41;10.37;;;5.40;;
50483;SDS011;36409;52.168;20.878;2023-09-07T09:16:10;13.17;;;5.87;;
50483;SDS011;36409;52.168;20.878;2023-09-07T09:18:47;12.13;;;6.17;;
50483;SDS011;36409;52.168;20.878;2023-09-07T09:21:19;19.45;;;6.25;;
50483;SDS011;36409;52.168;20.878;2023-09-07T09:23:51;14.37;;;5.80;;
50483;SDS011;36409;52.168;20.878;2023-09-07T09:26:22;10.27;;;4.83;;
50483;SDS011;36409;52.168;20.878;2023-09-07T09:28:57;11.53;;;4.60;;
50483;SDS011;36409;52.168;20.878;2023-09-07T09:31:30;10.55;;;5.00;;
50483;SDS011;36409;52.168;20.878;2023-09-07T09:34:10;13.60;;;4.33;;
50483;SDS011;36409;52.168;20.878;2023-09-07T09:36:41;7.63;;;3.93;;
50483;SDS011;36409;52.168;20.878;2023-09-07T09:39:20;11.00;;;4.57;;
50483;SDS011;36409;52.168;20.878;2023-09-07T09:41:51;10.15;;;3.60;;
50483;SDS011;36409;52.168;20.878;2023-09-07T09:44:21;10.40;;;4.00;;
50483;SDS011;36409;52.168;20.878;2023-09-07T09:46:52;14.67;;;3.60;;
50483;SDS011;36409;52.168;20.878;2023-09-07T09:49:24;18.23;;;4.37;;
50483;SDS011;36409;52.168;20.878;2023-09-07T09:51:54;11.63;;;3.70;;
50483;SDS011;36409;52.168;20.878;2023-09-07T09:54:26;8.20;;;4.13;;
50483;SDS011;36409;52.168;20.878;2023-09-07T09:56:57;9.30;;;4.13;;
50483;SDS011;36409;52.168;20.878;2023-09-07T09:59:26;30.07;;;5.90;;
50483;SDS011;36409;52.168;20.878;2023-09-07T10:01:55;14.43;;;4.40;;
50483;SDS011;36409;52.168;20.878;2023-09-07T10:04:28;8.68;;;3.87;;
50483;SDS011;36409;52.168;20.878;2023-09-07T10:06:59;12.67;;;4.30;;
50483;SDS011;36409;52.168;20.878;2023-09-07T10:09:29;12.95;;;3.87;;
50483;SDS011;36409;52.168;20.878;2023-09-07T10:12:01;8.23;;;3.60;;
50483;SDS011;36409;52.168;20.878;2023-09-07T10:14:38;8.63;;;3.55;;
50483;SDS011;36409;52.168;20.878;2023-09-07T10:17:08;11.93;;;3.97;;
50483;SDS011;36409;52.168;20.878;2023-09-07T10:19:36;7.10;;;3.93;;
50483;SDS011;36409;52.168;20.878;2023-09-07T10:22:07;9.83;;;3.27;;
50483;SDS011;36409;52.168;20.878;2023-09-07T10:24:36;11.03;;;3.47;;
50483;SDS011;36409;52.168;20.878;2023-09-07T10:27:09;12.43;;;3.60;;
50483;SDS011;36409;52.168;20.878;2023-09-07T10:29:41;9.63;;;4.20;;
50483;SDS011;36409;52.168;20.878;2023-09-07T10:32:14;15.47;;;4.20;;
50483;SDS011;36409;52.168;20.878;2023-09-07T10:34:47;6.50;;;3.10;;
50483;SDS011;36409;52.168;20.878;2023-09-07T10:37:16;14.27;;;3.67;;
50483;SDS011;36409;52.168;20.878;2023-09-07T10:39:45;8.97;;;3.10;;
50483;SDS011;36409;52.168;20.878;2023-09-07T10:42:20;9.80;;;3.70;;
50483;SDS011;36409;52.168;20.878;2023-09-07T10:44:49;4.93;;;3.03;;
50483;SDS011;36409;52.168;20.878;2023-09-07T10:47:18;6.93;;;3.00;;
50483;SDS011;36409;52.168;20.878;2023-09-07T10:49:47;13.35;;;3.60;;
50483;SDS011;36409;52.168;20.878;2023-09-07T10:52:17;7.77;;;3.30;;
50483;SDS011;36409;52.168;20.878;2023-09-07T10:54:46;7.57;;;3.47;;
50483;SDS011;36409;52.168;20.878;2023-09-07T10:57:27;10.80;;;3.10;;
50483;SDS011;36409;52.168;20.878;2023-09-07T10:59:58;14.83;;;3.43;;
50483;SDS011;36409;52.168;20.878;2023-09-07T11:02:27;8.87;;;3.60;;
50483;SDS011;36409;52.168;20.878;2023-09-07T11:04:56;6.20;;;3.60;;
50483;SDS011;36409;52.168;20.878;2023-09-07T11:07:26;16.63;;;4.33;;
50483;SDS011;36409;52.168;20.878;2023-09-07T11:09:56;8.03;;;3.40;;
50483;SDS011;36409;52.168;20.878;2023-09-07T11:12:25;15.87;;;3.53;;
50483;SDS011;36409;52.168;20.878;2023-09-07T11:14:54;23.23;;;3.53;;
50483;SDS011;36409;52.168;20.878;2023-09-07T11:17:26;10.00;;;2.70;;
50483;SDS011;36409;52.168;20.878;2023-09-07T11:19:55;7.83;;;2.77;;
50483;SDS011;36409;52.168;20.878;2023-09-07T11:22:24;6.57;;;2.97;;
50483;SDS011;36409;52.168;20.878;2023-09-07T11:24:54;8.40;;;3.07;;
50483;SDS011;36409;52.168;20.878;2023-09-07T11:27:24;26.43;;;4.90;;
50483;SDS011;36409;52.168;20.878;2023-09-07T11:32:32;9.07;;;2.87;;
50483;SDS011;36409;52.168;20.878;2023-09-07T11:35:03;12.03;;;3.40;;
50483;SDS011;36409;52.168;20.878;2023-09-07T11:37:34;9.08;;;3.17;;
50483;SDS011;36409;52.168;20.878;2023-09-07T11:40:04;6.40;;;2.90;;
50483;SDS011;36409;52.168;20.878;2023-09-07T11:42:41;4.60;;;2.77;;
50483;SDS011;36409;52.168;20.878;2023-09-07T11:45:11;6.03;;;2.83;;
50483;SDS011;36409;52.168;20.878;2023-09-07T11:47:41;9.73;;;2.93;;
50483;SDS011;36409;52.168;20.878;2023-09-07T11:50:10;4.83;;;2.90;;
50483;SDS011;36409;52.168;20.878;2023-09-07T11:52:40;7.80;;;2.90;;
50483;SDS011;36409;52.168;20.878;2023-09-07T11:55:13;5.50;;;2.77;;
50483;SDS011;36409;52.168;20.878;2023-09-07T11:57:42;8.37;;;3.00;;
50483;SDS011;36409;52.168;20.878;2023-09-07T12:00:20;7.83;;;2.73;;
50483;SDS011;36409;52.168;20.878;2023-09-07T12:02:51;5.80;;;2.80;;
50483;SDS011;36409;52.168;20.878;2023-09-07T12:05:20;11.47;;;3.00;;
50483;SDS011;36409;52.168;20.878;2023-09-07T12:07:48;8.57;;;2.90;;
50483;SDS011;36409;52.168;20.878;2023-09-07T12:10:17;13.30;;;3.10;;
50483;SDS011;36409;52.168;20.878;2023-09-07T12:12:47;11.13;;;3.83;;
50483;SDS011;36409;52.168;20.878;2023-09-07T12:15:16;20.77;;;3.90;;
50483;SDS011;36409;52.168;20.878;2023-09-07T12:17:44;10.50;;;3.40;;
50483;SDS011;36409;52.168;20.878;2023-09-07T12:20:15;5.67;;;2.93;;
50483;SDS011;36409;52.168;20.878;2023-09-07T12:22:44;8.17;;;3.33;;
50483;SDS011;36409;52.168;20.878;2023-09-07T12:25:14;6.27;;;2.87;;
50483;SDS011;36409;52.168;20.878;2023-09-07T12:27:48;5.63;;;2.70;;
50483;SDS011;36409;52.168;20.878;2023-09-07T12:30:23;13.47;;;2.90;;
50483;SDS011;36409;52.168;20.878;2023-09-07T12:32:52;7.33;;;2.90;;
50483;SDS011;36409;52.168;20.878;2023-09-07T12:35:29;32.17;;;5.80;;
50483;SDS011;36409;52.168;20.878;2023-09-07T12:38:02;8.33;;;2.93;;
50483;SDS011;36409;52.168;20.878;2023-09-07T12:40:42;7.27;;;3.00;;
50483;SDS011;36409;52.168;20.878;2023-09-07T12:43:11;6.67;;;3.23;;
50483;SDS011;36409;52.168;20.878;2023-09-07T12:45:40;9.73;;;3.10;;
50483;SDS011;36409;52.168;20.878;2023-09-07T12:48:10;6.70;;;2.90;;
50483;SDS011;36409;52.168;20.878;2023-09-07T12:50:39;11.73;;;3.00;;
50483;SDS011;36409;52.168;20.878;2023-09-07T12:53:08;7.50;;;2.60;;
50483;SDS011;36409;52.168;20.878;2023-09-07T12:55:37;9.40;;;3.17;;
50483;SDS011;36409;52.168;20.878;2023-09-07T12:58:06;11.57;;;3.50;;
50483;SDS011;36409;52.168;20.878;2023-09-07T13:00:35;6.20;;;2.87;;
50483;SDS011;36409;52.168;20.878;2023-09-07T13:03:04;7.20;;;2.63;;
50483;SDS011;36409;52.168;20.878;2023-09-07T13:05:33;5.10;;;2.87;;
50483;SDS011;36409;52.168;20.878;2023-09-07T13:08:04;5.57;;;2.63;;
50483;SDS011;36409;52.168;20.878;2023-09-07T13:10:34;5.67;;;2.80;;
50483;SDS011;36409;52.168;20.878;2023-09-07T13:13:03;6.70;;;3.17;;
50483;SDS011;36409;52.168;20.878;2023-09-07T13:15:32;16.40;;;3.07;;
50483;SDS011;36409;52.168;20.878;2023-09-07T13:18:01;5.93;;;2.93;;
50483;SDS011;36409;52.168;20.878;2023-09-07T13:20:30;6.73;;;2.57;;
50483;SDS011;36409;52.168;20.878;2023-09-07T13:23:00;9.23;;;3.00;;
50483;SDS011;36409;52.168;20.878;2023-09-07T13:25:29;8.07;;;3.00;;
50483;SDS011;36409;52.168;20.878;2023-09-07T13:27:58;6.33;;;2.67;;
50483;SDS011;36409;52.168;20.878;2023-09-07T13:30:28;9.17;;;2.80;;
50483;SDS011;36409;52.168;20.878;2023-09-07T13:32:57;4.23;;;2.37;;
50483;SDS011;36409;52.168;20.878;2023-09-07T13:35:27;5.60;;;2.57;;
50483;SDS011;36409;52.168;20.878;2023-09-07T13:37:57;9.57;;;3.03;;
50483;SDS011;36409;52.168;20.878;2023-09-07T13:40:26;19.13;;;3.47;;
50483;SDS011;36409;52.168;20.878;2023-09-07T13:42:57;5.27;;;2.70;;
50483;SDS011;36409;52.168;20.878;2023-09-07T13:45:25;6.77;;;2.60;;
50483;SDS011;36409;52.168;20.878;2023-09-07T13:47:59;4.90;;;2.83;;
50483;SDS011;36409;52.168;20.878;2023-09-07T13:50:29;5.50;;;2.63;;
50483;SDS011;36409;52.168;20.878;2023-09-07T13:52:58;6.97;;;2.50;;
50483;SDS011;36409;52.168;20.878;2023-09-07T13:55:27;3.90;;;2.10;;
50483;SDS011;36409;52.168;20.878;2023-09-07T13:57:57;10.10;;;2.70;;
50483;SDS011;36409;52.168;20.878;2023-09-07T14:00:26;4.07;;;2.47;;
50483;SDS011;36409;52.168;20.878;2023-09-07T14:02:58;6.77;;;2.30;;
50483;SDS011;36409;52.168;20.878;2023-09-07T14:05:31;6.50;;;2.40;;
50483;SDS011;36409;52.168;20.878;2023-09-07T14:08:00;7.50;;;2.77;;
50483;SDS011;36409;52.168;20.878;2023-09-07T14:10:29;5.27;;;2.47;;
50483;SDS011;36409;52.168;20.878;2023-09-07T14:12:58;6.13;;;2.57;;
50483;SDS011;36409;52.168;20.878;2023-09-07T14:15:27;5.63;;;2.50;;
50483;SDS011;36409;52.168;20.878;2023-09-07T14:17:57;8.60;;;2.67;;
50483;SDS011;36409;52.168;20.878;2023-09-07T14:20:30;7.05;;;3.15;;
50483;SDS011;36409;52.168;20.878;2023-09-07T14:22:59;7.27;;;3.17;;
50483;SDS011;36409;52.168;20.878;2023-09-07T14:25:28;8.33;;;2.40;;
50483;SDS011;36409;52.168;20.878;2023-09-07T14:27:57;7.80;;;2.57;;
50483;SDS011;36409;52.168;20.878;2023-09-07T14:30:26;4.60;;;2.63;;
50483;SDS011;36409;52.168;20.878;2023-09-07T14:33:01;12.77;;;3.03;;
50483;SDS011;36409;52.168;20.878;2023-09-07T14:35:30;7.27;;;2.70;;
50483;SDS011;36409;52.168;20.878;2023-09-07T14:37:59;13.40;;;2.87;;
50483;SDS011;36409;52.168;20.878;2023-09-07T14:40:28;7.40;;;2.73;;
50483;SDS011;36409;52.168;20.878;2023-09-07T14:42:57;7.20;;;2.53;;
50483;SDS011;36409;52.168;20.878;2023-09-07T14:45:29;5.47;;;2.60;;
50483;SDS011;36409;52.168;20.878;2023-09-07T14:47:58;3.87;;;2.00;;
50483;SDS011;36409;52.168;20.878;2023-09-07T14:50:30;7.37;;;2.63;;
50483;SDS011;36409;52.168;20.878;2023-09-07T14:52:59;6.67;;;2.13;;
50483;SDS011;36409;52.168;20.878;2023-09-07T14:55:28;15.03;;;3.57;;